createdAt,value
2022-10-13T00:00:31.081Z,22.33
2022-10-13T00:03:18.366Z,22.10
2022-10-13T00:05:48.373Z,23.60
2022-10-13T00:08:19.343Z,23.73
2022-10-13T00:10:48.386Z,22.23
2022-10-13T00:13:15.453Z,23.37
2022-10-13T00:15:45.685Z,22.93
2022-10-13T00:18:14.898Z,22.30
2022-10-13T00:20:47.561Z,21.60
2022-10-13T00:23:15.899Z,21.93
2022-10-13T00:25:44.341Z,22.93
2022-10-13T00:28:11.948Z,23.23
2022-10-13T00:30:40.021Z,25.57
2022-10-13T00:33:08.033Z,23.80
2022-10-13T00:35:39.927Z,23.43
2022-10-13T00:38:07.010Z,23.53
2022-10-13T00:40:34.074Z,23.07
2022-10-13T00:43:01.061Z,22.20
2022-10-13T00:45:29.678Z,23.70
2022-10-13T00:48:02.133Z,23.97
2022-10-13T00:50:35.546Z,22.53
2022-10-13T00:53:04.194Z,24.33
2022-10-13T00:55:35.249Z,24.20
2022-10-13T00:58:05.717Z,25.27
2022-10-13T01:00:34.119Z,25.53
2022-10-13T01:03:01.966Z,24.70
2022-10-13T01:05:30.292Z,27.00
2022-10-13T01:07:58.416Z,25.13
2022-10-13T01:10:46.557Z,27.13
2022-10-13T01:13:25.931Z,27.63
2022-10-13T01:16:04.691Z,27.27
2022-10-13T01:18:44.418Z,26.23
2022-10-13T01:21:38.208Z,29.30
2022-10-13T01:24:20.336Z,26.57
2022-10-13T01:26:59.162Z,26.70
2022-10-13T01:29:47.139Z,27.73
2022-10-13T01:32:40.254Z,26.90
2022-10-13T01:35:48.917Z,26.43
2022-10-13T01:38:37.222Z,26.40
2022-10-13T01:41:23.649Z,26.40
2022-10-13T01:44:23.415Z,27.13
2022-10-13T01:46:52.253Z,31.77
2022-10-13T01:49:22.346Z,28.87
2022-10-13T01:51:50.305Z,29.03
2022-10-13T01:54:18.753Z,26.77
2022-10-13T01:56:56.246Z,28.43
2022-10-13T01:59:25.592Z,34.40
2022-10-13T02:02:03.011Z,29.50
2022-10-13T02:04:59.857Z,33.53
2022-10-13T02:07:35.229Z,29.40
2022-10-13T02:10:08.341Z,31.10
2022-10-13T02:12:48.700Z,25.20
2022-10-13T02:15:21.364Z,29.30
2022-10-13T02:17:48.485Z,26.97
2022-10-13T02:20:17.133Z,26.97
2022-10-13T02:22:47.088Z,28.63
2022-10-13T02:25:14.092Z,28.83
2022-10-13T02:27:41.517Z,28.07
2022-10-13T02:30:09.403Z,28.07
2022-10-13T02:32:36.377Z,28.43
2022-10-13T02:35:03.458Z,28.63
2022-10-13T02:37:30.563Z,29.57
2022-10-13T02:39:57.510Z,27.30
2022-10-13T02:42:24.380Z,29.07
2022-10-13T02:44:51.438Z,26.93
2022-10-13T02:47:18.379Z,26.13
2022-10-13T02:49:45.362Z,28.93
2022-10-13T02:52:12.639Z,26.20
2022-10-13T02:54:39.579Z,26.70
2022-10-13T02:57:06.443Z,26.67
2022-10-13T02:59:33.700Z,28.53
2022-10-13T03:02:00.585Z,28.43
2022-10-13T03:04:27.506Z,28.60
2022-10-13T03:06:54.557Z,29.27
2022-10-13T03:09:21.623Z,29.93
2022-10-13T03:11:48.649Z,28.10
2022-10-13T03:14:15.750Z,29.87
2022-10-13T03:16:42.676Z,28.90
2022-10-13T03:19:09.743Z,30.30
2022-10-13T03:21:38.592Z,29.37
2022-10-13T03:24:05.877Z,28.90
2022-10-13T03:26:35.044Z,29.27
2022-10-13T03:29:03.295Z,29.30
2022-10-13T03:31:32.526Z,29.17
2022-10-13T03:33:59.474Z,27.80
2022-10-13T03:36:27.098Z,27.93
2022-10-13T03:38:54.020Z,27.80
2022-10-13T03:41:21.127Z,27.47
2022-10-13T03:43:48.411Z,28.20
2022-10-13T03:46:41.731Z,27.83
2022-10-13T03:49:11.336Z,27.50
2022-10-13T03:51:38.847Z,27.47
2022-10-13T03:54:05.994Z,29.27
2022-10-13T03:56:33.317Z,28.87
2022-10-13T03:59:01.078Z,26.67
2022-10-13T04:01:29.960Z,26.27
2022-10-13T04:04:05.925Z,26.73
2022-10-13T04:06:36.486Z,28.13
2022-10-13T04:09:04.133Z,27.30
2022-10-13T04:11:31.202Z,26.97
2022-10-13T04:13:58.808Z,28.07
2022-10-13T04:16:29.078Z,28.67
2022-10-13T04:19:01.914Z,27.37
2022-10-13T04:21:44.091Z,25.07
2022-10-13T04:24:30.185Z,26.27
2022-10-13T04:26:57.315Z,25.43
2022-10-13T04:29:24.289Z,24.83
2022-10-13T04:31:51.210Z,25.73
2022-10-13T04:34:18.384Z,25.00
2022-10-13T04:36:45.415Z,25.80
2022-10-13T04:39:12.292Z,24.43
2022-10-13T04:41:48.665Z,24.93
2022-10-13T04:44:19.514Z,23.10
2022-10-13T04:46:46.671Z,24.27
2022-10-13T04:49:15.310Z,25.23
2022-10-13T04:51:42.415Z,23.43
2022-10-13T04:54:10.109Z,22.97
2022-10-13T04:56:37.127Z,24.67
2022-10-13T04:59:52.873Z,23.77
2022-10-13T05:02:34.474Z,21.80
2022-10-13T05:05:01.549Z,24.40
2022-10-13T05:07:28.722Z,24.40
2022-10-13T05:09:55.597Z,24.53
2022-10-13T05:12:22.863Z,23.90
2022-10-13T05:14:50.201Z,22.80
2022-10-13T05:17:25.509Z,24.13
2022-10-13T05:20:01.399Z,22.93
2022-10-13T05:22:28.839Z,22.90
2022-10-13T05:24:56.090Z,24.30
2022-10-13T05:27:23.274Z,23.00
2022-10-13T05:29:50.254Z,22.47
2022-10-13T05:32:17.576Z,22.17
2022-10-13T05:34:58.814Z,22.43
2022-10-13T05:37:57.215Z,22.93
2022-10-13T05:40:24.390Z,24.07
2022-10-13T05:42:52.467Z,22.67
2022-10-13T05:45:21.177Z,22.50
2022-10-13T05:47:50.014Z,22.37
2022-10-13T05:50:17.154Z,23.63
2022-10-13T05:52:45.128Z,23.23
2022-10-13T05:55:24.368Z,24.47
2022-10-13T05:58:26.220Z,23.37
2022-10-13T06:00:55.136Z,22.77
2022-10-13T06:03:23.741Z,23.83
2022-10-13T06:05:50.814Z,25.30
2022-10-13T06:08:18.131Z,23.83
2022-10-13T06:10:45.662Z,24.83
2022-10-13T06:13:29.916Z,25.13
2022-10-13T06:15:58.573Z,23.40
2022-10-13T06:18:31.058Z,25.77
2022-10-13T06:20:58.172Z,22.93
2022-10-13T06:23:25.168Z,26.67
2022-10-13T06:25:53.772Z,23.70
2022-10-13T06:28:21.906Z,23.90
2022-10-13T06:34:39.830Z,22.17
2022-10-13T06:37:07.117Z,23.10
2022-10-13T06:39:34.315Z,22.87
2022-10-13T06:42:01.552Z,23.53
2022-10-13T06:44:28.817Z,22.23
2022-10-13T06:46:55.770Z,22.47
2022-10-13T06:49:32.537Z,20.27
2022-10-13T06:52:00.521Z,19.90
2022-10-13T06:54:27.709Z,18.60
2022-10-13T06:56:54.742Z,19.80
2022-10-13T06:59:22.122Z,17.83
2022-10-13T07:01:50.450Z,18.50
2022-10-13T07:04:17.654Z,24.13
2022-10-13T07:06:44.695Z,18.10
2022-10-13T07:09:13.189Z,16.93
2022-10-13T07:11:40.340Z,19.00
2022-10-13T07:14:07.816Z,21.57
2022-10-13T07:16:34.942Z,19.60
2022-10-13T07:19:02.141Z,17.63
2022-10-13T07:22:19.066Z,17.80
2022-10-13T07:24:46.517Z,18.00
2022-10-13T07:27:13.702Z,16.30
2022-10-13T07:29:40.743Z,16.70
2022-10-13T07:32:07.822Z,16.37
2022-10-13T07:34:35.051Z,22.57
2022-10-13T07:37:02.061Z,17.20
2022-10-13T07:46:39.869Z,15.07
2022-10-13T07:49:16.252Z,15.27
2022-10-13T07:51:44.062Z,26.67
2022-10-13T07:54:11.334Z,16.20
2022-10-13T07:56:38.565Z,15.27
2022-10-13T07:59:05.778Z,13.23
2022-10-13T08:01:32.796Z,13.20
2022-10-13T08:07:58.453Z,13.57
2022-10-13T08:10:28.847Z,13.40
2022-10-13T08:12:56.337Z,13.17
2022-10-13T08:15:40.703Z,11.63
2022-10-13T09:58:40.443Z,6.00
2022-10-13T10:01:18.266Z,6.83
2022-10-13T10:03:46.422Z,6.83
2022-10-13T10:06:16.358Z,8.00
2022-10-13T10:09:03.418Z,16.00
2022-10-13T10:11:39.719Z,15.97
2022-10-13T10:14:30.941Z,6.43
2022-10-13T10:17:22.801Z,4.57
2022-10-13T10:20:09.123Z,4.60
2022-10-13T10:22:46.050Z,5.07
2022-10-13T10:25:21.891Z,3.83
2022-10-13T10:28:02.548Z,3.80
2022-10-13T10:30:31.164Z,4.90
2022-10-13T10:32:58.318Z,4.60
2022-10-13T10:35:37.309Z,4.40
2022-10-13T10:38:30.543Z,3.80
2022-10-13T10:41:05.266Z,3.97
2022-10-13T10:43:43.399Z,3.57
2022-10-13T10:46:24.749Z,3.20
2022-10-13T10:49:03.167Z,3.47
2022-10-13T10:51:36.719Z,4.37
2022-10-13T10:54:49.349Z,4.13
2022-10-13T10:57:19.871Z,3.00
2022-10-13T10:59:59.503Z,2.90
2022-10-13T11:02:50.550Z,2.97
2022-10-13T11:05:17.997Z,2.77
2022-10-13T11:07:47.826Z,2.97
2022-10-13T11:10:16.466Z,3.00
2022-10-13T11:12:53.024Z,3.20
2022-10-13T11:15:31.188Z,3.00
2022-10-13T11:17:58.430Z,3.13
2022-10-13T11:20:34.218Z,3.40
2022-10-13T11:23:04.727Z,3.50
2022-10-13T11:25:39.786Z,3.60
2022-10-13T11:28:42.762Z,3.70
2022-10-13T11:31:15.338Z,3.50
2022-10-13T11:33:44.532Z,13.40
2022-10-13T11:36:48.406Z,3.23
2022-10-13T11:39:27.917Z,3.50
2022-10-13T11:41:57.560Z,3.67
2022-10-13T11:44:39.179Z,3.67
2022-10-13T11:47:42.423Z,3.67
2022-10-13T11:50:40.527Z,3.37
2022-10-13T11:53:16.357Z,3.53
2022-10-13T11:56:01.951Z,9.00
2022-10-13T11:58:31.159Z,3.73
2022-10-13T12:01:03.177Z,3.20
2022-10-13T12:03:38.033Z,3.13
2022-10-13T12:06:16.854Z,2.83
2022-10-13T12:08:48.270Z,3.40
2022-10-13T12:11:27.719Z,3.20
2022-10-13T12:13:55.609Z,3.20
2022-10-13T12:16:23.272Z,3.10
2022-10-13T12:18:51.054Z,3.63
2022-10-13T12:21:22.850Z,14.43
2022-10-13T12:23:52.505Z,3.00
2022-10-13T12:26:24.396Z,2.67
2022-10-13T12:28:56.227Z,3.07
2022-10-13T12:31:26.681Z,2.97
2022-10-13T12:33:59.558Z,2.50
2022-10-13T12:36:34.756Z,3.30
2022-10-13T12:39:07.809Z,2.80
2022-10-13T12:41:38.475Z,2.73
2022-10-13T12:44:07.901Z,3.23
2022-10-13T12:46:45.382Z,3.03
2022-10-13T12:49:30.384Z,3.07
2022-10-13T12:52:09.580Z,2.53
2022-10-13T12:54:39.493Z,2.83
2022-10-13T12:57:43.399Z,2.80
2022-10-13T13:00:19.689Z,2.90
2022-10-13T13:02:53.972Z,2.87
2022-10-13T13:05:31.223Z,2.87
2022-10-13T13:07:58.777Z,3.00
2022-10-13T13:10:26.276Z,3.57
2022-10-13T13:12:54.913Z,3.03
2022-10-13T13:15:24.594Z,3.00
2022-10-13T13:17:58.353Z,2.80
2022-10-13T13:20:34.742Z,2.97
2022-10-13T13:23:02.216Z,2.60
2022-10-13T13:25:29.201Z,3.30
2022-10-13T13:27:56.200Z,3.30
2022-10-13T13:30:24.667Z,3.00
2022-10-13T13:32:51.752Z,3.20
2022-10-13T13:35:19.151Z,3.00
2022-10-13T13:37:47.954Z,3.23
2022-10-13T13:40:26.476Z,3.97
2022-10-13T13:42:54.911Z,3.57
2022-10-13T13:45:24.782Z,3.83
2022-10-13T13:47:51.792Z,3.70
2022-10-13T13:50:36.589Z,3.13
2022-10-13T13:53:04.689Z,3.43
2022-10-13T13:55:32.644Z,3.50
2022-10-13T13:57:59.619Z,3.73
2022-10-13T14:00:26.923Z,3.80
2022-10-13T14:02:53.917Z,3.60
2022-10-13T14:05:21.094Z,3.27
2022-10-13T14:07:48.361Z,3.20
2022-10-13T14:10:15.618Z,3.10
2022-10-13T14:12:42.633Z,3.60
2022-10-13T14:15:10.373Z,3.87
2022-10-13T14:17:37.447Z,3.60
2022-10-13T14:20:04.875Z,3.40
2022-10-13T14:22:32.302Z,3.33
2022-10-13T14:24:59.291Z,3.57
2022-10-13T14:27:26.333Z,3.70
2022-10-13T14:29:53.531Z,3.47
2022-10-13T14:32:20.611Z,3.93
2022-10-13T14:34:47.700Z,3.47
2022-10-13T14:37:15.033Z,3.73
2022-10-13T14:39:41.979Z,3.37
2022-10-13T14:42:08.968Z,3.30
2022-10-13T14:44:36.190Z,3.40
2022-10-13T14:47:03.355Z,3.60
2022-10-13T14:49:30.384Z,3.30
2022-10-13T14:51:57.547Z,3.27
2022-10-13T14:54:25.303Z,3.30
2022-10-13T14:56:52.380Z,3.63
2022-10-13T14:59:19.707Z,3.33
2022-10-13T15:01:48.246Z,3.13
2022-10-13T15:04:15.408Z,3.87
2022-10-13T15:06:42.545Z,4.00
2022-10-13T15:09:10.364Z,3.57
2022-10-13T15:11:37.629Z,3.50
2022-10-13T15:14:04.951Z,3.30
2022-10-13T15:16:36.913Z,3.50
2022-10-13T15:19:04.729Z,3.27
2022-10-13T15:21:31.946Z,3.93
2022-10-13T15:23:59.058Z,3.50
2022-10-13T15:26:26.126Z,4.10
2022-10-13T15:28:53.836Z,4.30
2022-10-13T15:31:22.326Z,3.50
2022-10-13T15:33:52.068Z,3.60
2022-10-13T15:36:20.132Z,3.53
2022-10-13T15:38:47.172Z,3.83
2022-10-13T15:41:14.380Z,3.13
2022-10-13T15:43:41.875Z,4.07
2022-10-13T15:46:12.789Z,4.23
2022-10-13T15:48:40.233Z,3.80
2022-10-13T15:51:19.525Z,5.23
2022-10-13T15:53:50.071Z,4.03
2022-10-13T15:56:17.970Z,4.37
2022-10-13T15:58:45.658Z,4.10
2022-10-13T16:01:13.803Z,4.53
2022-10-13T16:03:41.658Z,4.00
2022-10-13T16:06:11.324Z,4.00
2022-10-13T16:08:39.927Z,4.30
2022-10-13T16:11:12.199Z,4.10
2022-10-13T16:13:40.819Z,4.07
2022-10-13T16:16:08.227Z,4.60
2022-10-13T16:18:37.293Z,4.07
2022-10-13T16:21:22.507Z,3.60
2022-10-13T16:23:50.031Z,4.03
2022-10-13T16:26:17.550Z,3.60
2022-10-13T16:28:45.928Z,4.93
2022-10-13T16:31:15.820Z,4.37
2022-10-13T16:33:44.350Z,5.37
2022-10-13T16:36:13.955Z,4.17
2022-10-13T16:38:41.888Z,5.47
2022-10-13T16:41:11.970Z,5.03
2022-10-13T16:43:39.181Z,4.67
2022-10-13T16:46:08.292Z,5.27
2022-10-13T16:48:35.463Z,5.00
2022-10-13T16:51:08.538Z,5.20
2022-10-13T16:53:36.310Z,6.17
2022-10-13T16:56:05.041Z,5.63
2022-10-13T16:58:32.628Z,5.40
2022-10-13T17:01:05.011Z,5.37
2022-10-13T17:03:32.395Z,5.90
2022-10-13T17:05:59.600Z,6.67
2022-10-13T17:08:26.854Z,7.63
2022-10-13T17:10:58.294Z,7.63
2022-10-13T17:13:25.742Z,8.23
2022-10-13T17:15:54.640Z,6.77
2022-10-13T17:18:22.484Z,6.40
2022-10-13T17:20:58.535Z,6.43
2022-10-13T17:23:26.212Z,7.13
2022-10-13T17:25:54.511Z,7.03
2022-10-13T17:28:22.427Z,8.93
2022-10-13T17:31:03.894Z,9.47
2022-10-13T17:33:34.533Z,8.33
2022-10-13T17:36:06.814Z,8.13
2022-10-13T17:38:35.139Z,7.93
2022-10-13T17:41:05.238Z,9.07
2022-10-13T17:43:34.546Z,8.73
2022-10-13T17:46:34.977Z,8.60
2022-10-13T17:49:00.784Z,8.60
2022-10-13T17:51:28.628Z,8.33
2022-10-13T17:53:57.994Z,8.43
2022-10-13T17:56:25.427Z,8.13
2022-10-13T17:58:52.742Z,8.70
2022-10-13T18:01:28.750Z,9.40
2022-10-13T18:04:01.251Z,9.20
2022-10-13T18:06:36.899Z,8.40
2022-10-13T18:09:13.891Z,8.93
2022-10-13T18:11:48.520Z,9.47
2022-10-13T18:14:22.004Z,9.17
2022-10-13T18:16:50.829Z,9.20
2022-10-13T18:19:18.063Z,9.97
2022-10-13T18:21:45.125Z,9.53
2022-10-13T18:24:12.798Z,9.83
2022-10-13T18:26:40.405Z,9.67
2022-10-13T18:29:09.253Z,9.50
2022-10-13T18:31:37.941Z,10.03
2022-10-13T18:34:08.604Z,10.07
2022-10-13T18:36:41.006Z,10.83
2022-10-13T18:39:15.396Z,11.17
2022-10-13T18:41:42.960Z,10.30
2022-10-13T18:44:10.300Z,9.57
2022-10-13T18:46:38.902Z,10.83
2022-10-13T18:49:08.566Z,10.33
2022-10-13T18:51:36.620Z,10.53
2022-10-13T18:54:05.278Z,10.30
2022-10-13T18:56:33.410Z,10.40
2022-10-13T18:59:01.891Z,11.07
2022-10-13T19:01:33.272Z,12.03
2022-10-13T19:04:00.504Z,12.23
2022-10-13T19:06:30.647Z,11.57
2022-10-13T19:09:03.951Z,12.63
2022-10-13T19:11:32.643Z,12.70
2022-10-13T19:14:00.647Z,12.57
2022-10-13T19:16:30.278Z,12.13
2022-10-13T19:18:57.465Z,13.07
2022-10-13T19:21:25.213Z,13.87
2022-10-13T19:23:52.547Z,12.43
2022-10-13T19:26:23.818Z,13.70
2022-10-13T19:29:01.797Z,13.27
2022-10-13T19:31:31.100Z,12.63
2022-10-13T19:34:01.163Z,13.27
2022-10-13T19:36:33.208Z,13.17
2022-10-13T19:39:02.267Z,13.47
2022-10-13T19:41:31.514Z,13.63
2022-10-13T19:43:59.630Z,13.87
2022-10-13T19:46:26.890Z,13.73
2022-10-13T19:48:54.127Z,12.77
2022-10-13T19:51:21.407Z,11.67
2022-10-13T19:53:48.401Z,13.00
2022-10-13T19:56:21.903Z,13.10
2022-10-13T19:58:49.093Z,12.87
2022-10-13T20:01:16.275Z,13.77
2022-10-13T20:03:43.326Z,12.60
2022-10-13T20:06:10.907Z,12.87
2022-10-13T20:08:37.992Z,13.20
2022-10-13T20:11:10.430Z,13.00
2022-10-13T20:13:37.745Z,13.60
2022-10-13T20:16:09.859Z,13.17
2022-10-13T20:18:37.658Z,13.30
2022-10-13T20:21:06.711Z,14.33
2022-10-13T20:23:34.668Z,13.60
2022-10-13T20:26:06.727Z,13.23
2022-10-13T20:28:39.204Z,13.03
2022-10-13T20:31:10.358Z,13.00
2022-10-13T20:33:37.616Z,13.23
2022-10-13T20:36:07.575Z,13.57
2022-10-13T20:38:38.224Z,12.77
2022-10-13T20:41:19.715Z,14.10
2022-10-13T20:43:48.102Z,14.20
2022-10-13T20:46:16.804Z,13.37
2022-10-13T20:51:31.395Z,13.07
2022-10-13T20:53:58.388Z,14.20
2022-10-13T20:56:26.430Z,14.50
2022-10-13T20:58:53.890Z,14.00
2022-10-13T21:01:22.472Z,13.40
2022-10-13T21:03:56.035Z,14.27
2022-10-13T21:06:24.711Z,13.77
2022-10-13T21:08:52.456Z,13.60
2022-10-13T21:11:21.573Z,12.93
2022-10-13T21:13:49.481Z,13.77
2022-10-13T21:16:24.074Z,13.43
2022-10-13T21:18:51.943Z,13.70
2022-10-13T21:21:22.971Z,13.83
2022-10-13T21:23:51.876Z,13.93
2022-10-13T21:26:21.959Z,13.60
2022-10-13T21:28:50.442Z,14.37
2022-10-13T21:31:19.699Z,12.90
2022-10-13T21:33:46.736Z,13.53
2022-10-13T21:36:19.779Z,12.77
2022-10-13T21:38:47.755Z,13.00
2022-10-13T21:41:15.430Z,12.87
2022-10-13T21:43:42.876Z,13.50
2022-10-13T21:46:20.449Z,13.20
2022-10-13T21:48:48.545Z,13.47
2022-10-13T21:51:21.856Z,12.77
2022-10-13T21:53:51.470Z,12.90
2022-10-13T21:56:19.220Z,12.50
2022-10-13T21:58:47.377Z,13.37
2022-10-13T22:01:15.911Z,13.10
2022-10-13T22:03:43.092Z,14.10
2022-10-13T22:06:18.787Z,13.30
2022-10-13T22:08:49.747Z,12.93
2022-10-13T22:11:18.098Z,13.60
2022-10-13T22:13:45.817Z,13.83
2022-10-13T22:16:19.945Z,14.60
2022-10-13T22:18:47.860Z,14.87
2022-10-13T22:21:19.426Z,14.50
2022-10-13T22:23:46.638Z,13.73
2022-10-13T22:26:14.747Z,14.70
2022-10-13T22:28:42.643Z,15.30
2022-10-13T22:31:12.485Z,14.87
2022-10-13T22:33:41.794Z,14.67
2022-10-13T22:36:17.282Z,15.17
2022-10-13T22:38:45.446Z,14.40
2022-10-13T22:41:14.702Z,15.17
2022-10-13T22:43:44.117Z,14.33
2022-10-13T22:46:12.858Z,14.13
2022-10-13T22:48:41.663Z,14.97
2022-10-13T22:51:09.447Z,16.03
2022-10-13T22:53:36.547Z,14.97
2022-10-13T22:56:15.591Z,16.23
2022-10-13T22:58:42.475Z,16.13
2022-10-13T23:01:12.665Z,17.93
2022-10-13T23:03:40.477Z,17.57
2022-10-13T23:06:12.334Z,17.60
2022-10-13T23:08:39.633Z,16.90
2022-10-13T23:11:06.583Z,17.57
2022-10-13T23:13:33.667Z,16.47
2022-10-13T23:16:09.194Z,17.23
2022-10-13T23:18:36.283Z,19.83
2022-10-13T23:21:08.143Z,16.67
2022-10-13T23:23:35.317Z,17.43
2022-10-13T23:26:08.021Z,16.73
2022-10-13T23:28:35.632Z,17.53
2022-10-13T23:31:04.104Z,18.00
2022-10-13T23:33:31.483Z,17.20
2022-10-13T23:36:00.839Z,18.57
2022-10-13T23:38:29.734Z,18.20
2022-10-13T23:41:06.379Z,17.33
2022-10-13T23:43:34.111Z,17.97
2022-10-13T23:46:01.086Z,16.50
2022-10-13T23:48:28.343Z,16.67
2022-10-13T23:50:56.108Z,16.40
2022-10-13T23:53:23.444Z,17.67
2022-10-13T23:55:50.480Z,17.27
2022-10-13T23:58:17.716Z,17.87
